St Helier, United Kingdom
Current Conditions -  °F | °C
As of 9:50 PM on Saturday 20 Dec 2014 (Local Time) from EGJJ Reporting Station
Broken Clouds Broken Clouds  
Wind Chill: 50°   Ceiling: 2900
Heat Index: 50°   Visibility: 6mi
Dew Point: 41°   Wind: 10mph
Humidity: 71%   Direction: 310°NW
Pressure: 30.53"   Gusts: NA
Location:  49.18°N, 2.1°W
Report Text: EGJJ 202050Z 31009KT 9999 FEW025 BKN029 10/05 Q1034 NOSIG
Loading
Personal Weather Stations






























Interactive Weather Map New forecast layout! Learn more

10-Day Weather Forecast

Advertisements
Track Severe Weather on mobile